sensor_id;sensor_type;location;lat;lon;timestamp;temperature;humidity
17236;DHT22;8734;59.272;17.780;2023-06-24T00:01:13;14.90;99.90
17236;DHT22;8734;59.272;17.780;2023-06-24T00:03:42;14.90;99.90
17236;DHT22;8734;59.272;17.780;2023-06-24T00:06:15;14.90;99.90
17236;DHT22;8734;59.272;17.780;2023-06-24T00:08:45;14.80;99.90
17236;DHT22;8734;59.272;17.780;2023-06-24T00:11:14;14.80;99.90
17236;DHT22;8734;59.272;17.780;2023-06-24T00:13:43;14.80;99.90
17236;DHT22;8734;59.272;17.780;2023-06-24T00:16:12;14.70;99.90
17236;DHT22;8734;59.272;17.780;2023-06-24T00:18:40;14.70;99.90
17236;DHT22;8734;59.272;17.780;2023-06-24T00:21:09;14.60;99.90
17236;DHT22;8734;59.272;17.780;2023-06-24T00:23:38;14.60;99.90
17236;DHT22;8734;59.272;17.780;2023-06-24T00:26:08;14.50;99.90
17236;DHT22;8734;59.272;17.780;2023-06-24T00:28:36;14.50;99.90
17236;DHT22;8734;59.272;17.780;2023-06-24T00:31:04;14.50;99.90
17236;DHT22;8734;59.272;17.780;2023-06-24T00:33:33;14.40;99.90
17236;DHT22;8734;59.272;17.780;2023-06-24T00:36:03;14.40;99.90
17236;DHT22;8734;59.272;17.780;2023-06-24T00:38:32;14.40;99.90
17236;DHT22;8734;59.272;17.780;2023-06-24T00:41:01;14.40;99.90
17236;DHT22;8734;59.272;17.780;2023-06-24T00:43:30;14.40;99.90
17236;DHT22;8734;59.272;17.780;2023-06-24T00:45:59;14.30;99.90
17236;DHT22;8734;59.272;17.780;2023-06-24T00:48:28;14.30;99.90
17236;DHT22;8734;59.272;17.780;2023-06-24T00:50:58;14.20;99.90
17236;DHT22;8734;59.272;17.780;2023-06-24T00:53:26;14.20;99.90
17236;DHT22;8734;59.272;17.780;2023-06-24T00:55:56;14.20;99.90
17236;DHT22;8734;59.272;17.780;2023-06-24T00:58:31;14.10;99.90
17236;DHT22;8734;59.272;17.780;2023-06-24T01:01:00;14.10;99.90
17236;DHT22;8734;59.272;17.780;2023-06-24T01:03:30;14.10;99.90
17236;DHT22;8734;59.272;17.780;2023-06-24T01:05:59;14.30;99.90
17236;DHT22;8734;59.272;17.780;2023-06-24T01:08:27;14.40;99.90
17236;DHT22;8734;59.272;17.780;2023-06-24T01:10:56;14.60;99.90
17236;DHT22;8734;59.272;17.780;2023-06-24T01:13:24;14.60;99.90
17236;DHT22;8734;59.272;17.780;2023-06-24T01:15:54;14.60;99.90
17236;DHT22;8734;59.272;17.780;2023-06-24T01:18:28;14.60;99.90
17236;DHT22;8734;59.272;17.780;2023-06-24T01:21:02;14.50;99.90
17236;DHT22;8734;59.272;17.780;2023-06-24T01:23:55;14.50;99.90
17236;DHT22;8734;59.272;17.780;2023-06-24T01:26:52;14.40;99.90
17236;DHT22;8734;59.272;17.780;2023-06-24T01:29:37;14.30;99.90
17236;DHT22;8734;59.272;17.780;2023-06-24T01:32:16;14.30;99.90
17236;DHT22;8734;59.272;17.780;2023-06-24T01:34:53;14.20;99.90
17236;DHT22;8734;59.272;17.780;2023-06-24T01:37:28;14.10;99.90
17236;DHT22;8734;59.272;17.780;2023-06-24T01:40:02;14.10;99.90
17236;DHT22;8734;59.272;17.780;2023-06-24T01:42:38;14.00;99.90
17236;DHT22;8734;59.272;17.780;2023-06-24T01:45:10;14.00;99.90
17236;DHT22;8734;59.272;17.780;2023-06-24T01:47:44;14.00;99.90
17236;DHT22;8734;59.272;17.780;2023-06-24T01:50:15;14.00;99.90
17236;DHT22;8734;59.272;17.780;2023-06-24T01:52:45;13.90;99.90
17236;DHT22;8734;59.272;17.780;2023-06-24T01:55:18;13.90;99.90
17236;DHT22;8734;59.272;17.780;2023-06-24T01:57:49;13.80;99.90
17236;DHT22;8734;59.272;17.780;2023-06-24T02:00:18;13.90;99.90
17236;DHT22;8734;59.272;17.780;2023-06-24T02:02:50;13.80;99.90
17236;DHT22;8734;59.272;17.780;2023-06-24T02:05:19;13.80;99.90
17236;DHT22;8734;59.272;17.780;2023-06-24T02:07:49;13.80;99.90
17236;DHT22;8734;59.272;17.780;2023-06-24T02:10:20;13.70;99.90
17236;DHT22;8734;59.272;17.780;2023-06-24T02:12:53;13.70;99.90
17236;DHT22;8734;59.272;17.780;2023-06-24T02:15:22;13.70;99.90
17236;DHT22;8734;59.272;17.780;2023-06-24T02:17:53;13.60;99.90
17236;DHT22;8734;59.272;17.780;2023-06-24T02:20:25;13.60;99.90
17236;DHT22;8734;59.272;17.780;2023-06-24T02:22:56;13.60;99.90
17236;DHT22;8734;59.272;17.780;2023-06-24T02:25:26;13.60;99.90
17236;DHT22;8734;59.272;17.780;2023-06-24T02:27:55;13.70;99.90
17236;DHT22;8734;59.272;17.780;2023-06-24T02:30:25;13.70;99.90
17236;DHT22;8734;59.272;17.780;2023-06-24T02:32:55;13.80;99.90
17236;DHT22;8734;59.272;17.780;2023-06-24T02:35:24;13.80;99.90
17236;DHT22;8734;59.272;17.780;2023-06-24T02:37:52;13.80;99.90
17236;DHT22;8734;59.272;17.780;2023-06-24T02:40:20;13.90;99.90
17236;DHT22;8734;59.272;17.780;2023-06-24T02:42:49;13.80;99.90
17236;DHT22;8734;59.272;17.780;2023-06-24T02:45:17;13.90;99.90
17236;DHT22;8734;59.272;17.780;2023-06-24T02:47:47;13.90;99.90
17236;DHT22;8734;59.272;17.780;2023-06-24T02:50:18;13.90;99.90
17236;DHT22;8734;59.272;17.780;2023-06-24T02:52:48;13.90;99.90
17236;DHT22;8734;59.272;17.780;2023-06-24T02:55:16;13.90;99.90
17236;DHT22;8734;59.272;17.780;2023-06-24T02:57:45;13.90;99.90
17236;DHT22;8734;59.272;17.780;2023-06-24T03:00:15;13.90;99.90
17236;DHT22;8734;59.272;17.780;2023-06-24T03:02:46;13.90;99.90
17236;DHT22;8734;59.272;17.780;2023-06-24T03:05:15;13.90;99.90
17236;DHT22;8734;59.272;17.780;2023-06-24T03:07:46;13.90;99.90
17236;DHT22;8734;59.272;17.780;2023-06-24T03:10:14;13.90;99.90
17236;DHT22;8734;59.272;17.780;2023-06-24T03:12:43;13.90;99.90
17236;DHT22;8734;59.272;17.780;2023-06-24T03:15:11;13.90;99.90
17236;DHT22;8734;59.272;17.780;2023-06-24T03:17:40;13.90;99.90
17236;DHT22;8734;59.272;17.780;2023-06-24T03:20:09;13.90;99.90
17236;DHT22;8734;59.272;17.780;2023-06-24T03:22:37;13.90;99.90
17236;DHT22;8734;59.272;17.780;2023-06-24T03:25:08;13.90;99.90
17236;DHT22;8734;59.272;17.780;2023-06-24T03:27:36;13.90;99.90
17236;DHT22;8734;59.272;17.780;2023-06-24T03:30:05;14.00;99.90
17236;DHT22;8734;59.272;17.780;2023-06-24T03:32:34;14.10;99.90
17236;DHT22;8734;59.272;17.780;2023-06-24T03:35:03;14.50;99.90
17236;DHT22;8734;59.272;17.780;2023-06-24T03:37:33;14.70;99.90
17236;DHT22;8734;59.272;17.780;2023-06-24T03:40:02;15.00;99.90
17236;DHT22;8734;59.272;17.780;2023-06-24T03:42:32;15.10;99.90
17236;DHT22;8734;59.272;17.780;2023-06-24T03:45:01;15.30;99.90
17236;DHT22;8734;59.272;17.780;2023-06-24T03:47:30;15.40;99.90
17236;DHT22;8734;59.272;17.780;2023-06-24T03:49:58;15.50;99.90
17236;DHT22;8734;59.272;17.780;2023-06-24T03:52:27;15.60;99.90
17236;DHT22;8734;59.272;17.780;2023-06-24T03:54:55;15.60;99.90
17236;DHT22;8734;59.272;17.780;2023-06-24T03:57:24;15.70;99.90
17236;DHT22;8734;59.272;17.780;2023-06-24T03:59:53;15.70;99.90
17236;DHT22;8734;59.272;17.780;2023-06-24T04:02:22;15.70;99.90
17236;DHT22;8734;59.272;17.780;2023-06-24T04:04:50;15.80;99.90
17236;DHT22;8734;59.272;17.780;2023-06-24T04:07:18;15.80;99.90
17236;DHT22;8734;59.272;17.780;2023-06-24T04:09:54;15.80;99.90
17236;DHT22;8734;59.272;17.780;2023-06-24T04:12:23;15.80;99.90
17236;DHT22;8734;59.272;17.780;2023-06-24T04:14:53;15.80;99.90
17236;DHT22;8734;59.272;17.780;2023-06-24T04:17:21;15.80;99.90
17236;DHT22;8734;59.272;17.780;2023-06-24T04:19:50;15.80;99.90
17236;DHT22;8734;59.272;17.780;2023-06-24T04:22:18;15.90;99.90
17236;DHT22;8734;59.272;17.780;2023-06-24T04:24:46;15.90;99.90
17236;DHT22;8734;59.272;17.780;2023-06-24T04:27:15;15.90;99.90
17236;DHT22;8734;59.272;17.780;2023-06-24T04:29:43;16.00;99.90
17236;DHT22;8734;59.272;17.780;2023-06-24T04:32:13;16.00;99.90
17236;DHT22;8734;59.272;17.780;2023-06-24T04:34:41;16.00;99.90
17236;DHT22;8734;59.272;17.780;2023-06-24T04:37:10;16.00;99.90
17236;DHT22;8734;59.272;17.780;2023-06-24T04:39:38;16.00;99.90
17236;DHT22;8734;59.272;17.780;2023-06-24T04:42:06;16.00;99.90
17236;DHT22;8734;59.272;17.780;2023-06-24T04:44:35;16.10;99.90
17236;DHT22;8734;59.272;17.780;2023-06-24T04:47:04;16.10;99.90
17236;DHT22;8734;59.272;17.780;2023-06-24T04:49:34;16.20;99.90
17236;DHT22;8734;59.272;17.780;2023-06-24T04:52:03;16.10;99.90
17236;DHT22;8734;59.272;17.780;2023-06-24T04:54:31;16.20;99.90
17236;DHT22;8734;59.272;17.780;2023-06-24T04:56:59;16.20;99.90
17236;DHT22;8734;59.272;17.780;2023-06-24T04:59:28;16.20;99.90
17236;DHT22;8734;59.272;17.780;2023-06-24T05:01:56;16.20;99.90
17236;DHT22;8734;59.272;17.780;2023-06-24T05:04:24;16.20;99.90
17236;DHT22;8734;59.272;17.780;2023-06-24T05:06:54;16.30;99.90
17236;DHT22;8734;59.272;17.780;2023-06-24T05:09:23;16.30;99.90
17236;DHT22;8734;59.272;17.780;2023-06-24T05:11:51;16.30;99.90
17236;DHT22;8734;59.272;17.780;2023-06-24T05:14:19;16.30;99.90
17236;DHT22;8734;59.272;17.780;2023-06-24T05:16:48;16.30;99.90
17236;DHT22;8734;59.272;17.780;2023-06-24T05:19:16;16.40;99.90
17236;DHT22;8734;59.272;17.780;2023-06-24T05:21:44;16.50;99.90
17236;DHT22;8734;59.272;17.780;2023-06-24T05:24:14;16.50;99.90
17236;DHT22;8734;59.272;17.780;2023-06-24T05:26:44;16.70;99.90
17236;DHT22;8734;59.272;17.780;2023-06-24T05:29:12;16.70;99.90
17236;DHT22;8734;59.272;17.780;2023-06-24T05:31:41;16.80;99.90
17236;DHT22;8734;59.272;17.780;2023-06-24T05:34:09;16.80;99.90
17236;DHT22;8734;59.272;17.780;2023-06-24T05:36:37;16.90;99.90
17236;DHT22;8734;59.272;17.780;2023-06-24T05:39:06;16.90;99.90
17236;DHT22;8734;59.272;17.780;2023-06-24T05:41:36;16.90;99.90
17236;DHT22;8734;59.272;17.780;2023-06-24T05:44:06;16.90;99.90
17236;DHT22;8734;59.272;17.780;2023-06-24T05:46:36;17.00;99.90
17236;DHT22;8734;59.272;17.780;2023-06-24T05:49:04;17.10;99.90
17236;DHT22;8734;59.272;17.780;2023-06-24T05:51:33;17.30;99.90
17236;DHT22;8734;59.272;17.780;2023-06-24T05:54:01;17.30;99.90
17236;DHT22;8734;59.272;17.780;2023-06-24T05:56:30;17.30;99.90
17236;DHT22;8734;59.272;17.780;2023-06-24T05:59:00;17.30;99.90
17236;DHT22;8734;59.272;17.780;2023-06-24T06:01:28;17.40;99.90
17236;DHT22;8734;59.272;17.780;2023-06-24T06:03:56;17.40;99.90
17236;DHT22;8734;59.272;17.780;2023-06-24T06:06:25;17.40;99.90
17236;DHT22;8734;59.272;17.780;2023-06-24T06:08:53;17.60;99.90
17236;DHT22;8734;59.272;17.780;2023-06-24T06:11:21;17.60;99.90
17236;DHT22;8734;59.272;17.780;2023-06-24T06:13:50;17.70;99.90
17236;DHT22;8734;59.272;17.780;2023-06-24T06:16:20;17.90;99.90
17236;DHT22;8734;59.272;17.780;2023-06-24T06:18:49;18.00;99.90
17236;DHT22;8734;59.272;17.780;2023-06-24T06:21:17;18.10;99.90
17236;DHT22;8734;59.272;17.780;2023-06-24T06:23:45;18.20;99.90
17236;DHT22;8734;59.272;17.780;2023-06-24T06:26:14;18.40;99.90
17236;DHT22;8734;59.272;17.780;2023-06-24T06:28:42;18.70;99.90
17236;DHT22;8734;59.272;17.780;2023-06-24T06:31:10;18.90;99.90
17236;DHT22;8734;59.272;17.780;2023-06-24T06:33:40;18.90;99.90
17236;DHT22;8734;59.272;17.780;2023-06-24T06:36:08;19.20;99.90
17236;DHT22;8734;59.272;17.780;2023-06-24T06:38:37;19.10;99.90
17236;DHT22;8734;59.272;17.780;2023-06-24T06:41:05;19.30;99.90
17236;DHT22;8734;59.272;17.780;2023-06-24T06:43:34;19.40;99.90
17236;DHT22;8734;59.272;17.780;2023-06-24T06:46:02;19.40;99.90
17236;DHT22;8734;59.272;17.780;2023-06-24T06:48:30;19.30;99.90
17236;DHT22;8734;59.272;17.780;2023-06-24T06:51:00;19.20;99.90
17236;DHT22;8734;59.272;17.780;2023-06-24T06:53:28;19.20;99.90
17236;DHT22;8734;59.272;17.780;2023-06-24T06:55:56;19.40;99.90
17236;DHT22;8734;59.272;17.780;2023-06-24T06:58:25;19.70;99.90
17236;DHT22;8734;59.272;17.780;2023-06-24T07:00:54;19.90;99.90
17236;DHT22;8734;59.272;17.780;2023-06-24T07:03:23;20.20;99.90
17236;DHT22;8734;59.272;17.780;2023-06-24T07:05:52;20.40;99.90
17236;DHT22;8734;59.272;17.780;2023-06-24T07:08:22;20.70;99.90
17236;DHT22;8734;59.272;17.780;2023-06-24T07:10:50;20.70;99.90
17236;DHT22;8734;59.272;17.780;2023-06-24T07:13:19;21.00;99.90
17236;DHT22;8734;59.272;17.780;2023-06-24T07:15:47;21.20;99.90
17236;DHT22;8734;59.272;17.780;2023-06-24T07:18:15;21.50;99.90
17236;DHT22;8734;59.272;17.780;2023-06-24T07:20:43;21.50;99.90
17236;DHT22;8734;59.272;17.780;2023-06-24T07:23:12;21.40;99.90
17236;DHT22;8734;59.272;17.780;2023-06-24T07:25:41;21.30;99.90
17236;DHT22;8734;59.272;17.780;2023-06-24T07:28:10;21.50;99.90
17236;DHT22;8734;59.272;17.780;2023-06-24T07:30:40;21.90;99.90
17236;DHT22;8734;59.272;17.780;2023-06-24T07:33:08;22.20;99.90
17236;DHT22;8734;59.272;17.780;2023-06-24T07:35:37;22.40;99.90
17236;DHT22;8734;59.272;17.780;2023-06-24T07:38:05;22.60;99.90
17236;DHT22;8734;59.272;17.780;2023-06-24T07:40:33;22.80;99.90
17236;DHT22;8734;59.272;17.780;2023-06-24T07:43:03;23.10;99.90
17236;DHT22;8734;59.272;17.780;2023-06-24T07:45:31;23.30;99.90
17236;DHT22;8734;59.272;17.780;2023-06-24T07:48:00;23.40;99.90
17236;DHT22;8734;59.272;17.780;2023-06-24T07:50:28;23.70;99.90
17236;DHT22;8734;59.272;17.780;2023-06-24T07:52:58;23.90;99.90
17236;DHT22;8734;59.272;17.780;2023-06-24T07:55:26;24.10;99.90
17236;DHT22;8734;59.272;17.780;2023-06-24T07:57:54;24.40;99.90
17236;DHT22;8734;59.272;17.780;2023-06-24T08:00:26;24.50;99.90
17236;DHT22;8734;59.272;17.780;2023-06-24T08:02:55;24.50;99.90
17236;DHT22;8734;59.272;17.780;2023-06-24T08:05:23;24.20;99.90
17236;DHT22;8734;59.272;17.780;2023-06-24T08:07:52;24.10;99.90
17236;DHT22;8734;59.272;17.780;2023-06-24T08:10:20;24.10;99.90
17236;DHT22;8734;59.272;17.780;2023-06-24T08:12:49;24.30;99.90
17236;DHT22;8734;59.272;17.780;2023-06-24T08:15:17;24.50;99.90
17236;DHT22;8734;59.272;17.780;2023-06-24T08:17:52;24.40;99.90
17236;DHT22;8734;59.272;17.780;2023-06-24T08:20:21;24.30;99.90
17236;DHT22;8734;59.272;17.780;2023-06-24T08:22:49;24.30;99.90
17236;DHT22;8734;59.272;17.780;2023-06-24T08:25:17;24.30;99.90
17236;DHT22;8734;59.272;17.780;2023-06-24T08:27:46;24.30;99.90
17236;DHT22;8734;59.272;17.780;2023-06-24T08:30:14;24.80;99.90
17236;DHT22;8734;59.272;17.780;2023-06-24T08:32:43;24.80;99.90
17236;DHT22;8734;59.272;17.780;2023-06-24T08:35:12;25.00;99.90
17236;DHT22;8734;59.272;17.780;2023-06-24T08:37:41;24.80;99.90
17236;DHT22;8734;59.272;17.780;2023-06-24T08:40:10;25.00;99.90
17236;DHT22;8734;59.272;17.780;2023-06-24T08:42:39;25.10;99.90
17236;DHT22;8734;59.272;17.780;2023-06-24T08:45:08;25.30;99.30
17236;DHT22;8734;59.272;17.780;2023-06-24T08:47:36;25.30;97.40
17236;DHT22;8734;59.272;17.780;2023-06-24T08:50:10;25.30;98.20
17236;DHT22;8734;59.272;17.780;2023-06-24T08:52:45;25.60;99.00
17236;DHT22;8734;59.272;17.780;2023-06-24T08:55:17;25.70;98.70
17236;DHT22;8734;59.272;17.780;2023-06-24T08:57:50;25.60;97.80
17236;DHT22;8734;59.272;17.780;2023-06-24T09:00:18;25.50;98.00
17236;DHT22;8734;59.272;17.780;2023-06-24T09:02:47;25.50;98.00
17236;DHT22;8734;59.272;17.780;2023-06-24T09:05:15;25.70;99.70
17236;DHT22;8734;59.272;17.780;2023-06-24T09:07:45;26.00;95.70
17236;DHT22;8734;59.272;17.780;2023-06-24T09:10:29;25.90;97.00
17236;DHT22;8734;59.272;17.780;2023-06-24T09:12:59;25.80;95.20
17236;DHT22;8734;59.272;17.780;2023-06-24T09:15:30;25.80;95.20
17236;DHT22;8734;59.272;17.780;2023-06-24T09:17:59;25.90;95.50
17236;DHT22;8734;59.272;17.780;2023-06-24T09:20:28;26.00;94.00
17236;DHT22;8734;59.272;17.780;2023-06-24T09:23:02;26.00;93.10
17236;DHT22;8734;59.272;17.780;2023-06-24T09:25:31;25.80;94.20
17236;DHT22;8734;59.272;17.780;2023-06-24T09:28:01;25.70;94.00
17236;DHT22;8734;59.272;17.780;2023-06-24T09:30:29;25.40;94.10
17236;DHT22;8734;59.272;17.780;2023-06-24T09:32:57;25.50;95.10
17236;DHT22;8734;59.272;17.780;2023-06-24T09:35:26;26.00;95.60
17236;DHT22;8734;59.272;17.780;2023-06-24T09:37:56;26.20;93.30
17236;DHT22;8734;59.272;17.780;2023-06-24T09:40:27;25.70;93.30
17236;DHT22;8734;59.272;17.780;2023-06-24T09:42:57;26.00;95.60
17236;DHT22;8734;59.272;17.780;2023-06-24T09:45:28;26.80;92.90
17236;DHT22;8734;59.272;17.780;2023-06-24T09:47:57;26.60;93.00
17236;DHT22;8734;59.272;17.780;2023-06-24T09:50:26;26.90;94.60
17236;DHT22;8734;59.272;17.780;2023-06-24T09:52:55;27.40;91.80
17236;DHT22;8734;59.272;17.780;2023-06-24T09:55:26;27.40;91.20
17236;DHT22;8734;59.272;17.780;2023-06-24T09:57:55;27.70;93.30
17236;DHT22;8734;59.272;17.780;2023-06-24T10:00:25;27.20;91.70
17236;DHT22;8734;59.272;17.780;2023-06-24T10:02:54;27.40;92.40
17236;DHT22;8734;59.272;17.780;2023-06-24T10:05:27;27.60;91.40
17236;DHT22;8734;59.272;17.780;2023-06-24T10:07:55;27.20;87.30
17236;DHT22;8734;59.272;17.780;2023-06-24T10:10:24;27.30;86.90
17236;DHT22;8734;59.272;17.780;2023-06-24T10:12:53;27.60;87.40
17236;DHT22;8734;59.272;17.780;2023-06-24T10:15:22;27.60;86.60
17236;DHT22;8734;59.272;17.780;2023-06-24T10:17:50;27.50;88.90
17236;DHT22;8734;59.272;17.780;2023-06-24T10:20:37;27.10;88.20
17236;DHT22;8734;59.272;17.780;2023-06-24T10:23:06;26.50;85.00
17236;DHT22;8734;59.272;17.780;2023-06-24T10:25:36;26.60;82.50
17236;DHT22;8734;59.272;17.780;2023-06-24T10:28:06;26.50;86.10
17236;DHT22;8734;59.272;17.780;2023-06-24T10:30:36;26.50;87.40
17236;DHT22;8734;59.272;17.780;2023-06-24T10:33:10;26.40;85.40
17236;DHT22;8734;59.272;17.780;2023-06-24T10:35:42;26.00;85.20
17236;DHT22;8734;59.272;17.780;2023-06-24T10:38:11;26.00;85.00
17236;DHT22;8734;59.272;17.780;2023-06-24T10:40:41;25.80;84.10
17236;DHT22;8734;59.272;17.780;2023-06-24T10:43:32;25.90;85.30
17236;DHT22;8734;59.272;17.780;2023-06-24T10:46:14;25.80;86.00
17236;DHT22;8734;59.272;17.780;2023-06-24T10:48:43;26.30;84.10
17236;DHT22;8734;59.272;17.780;2023-06-24T10:51:12;26.60;81.70
17236;DHT22;8734;59.272;17.780;2023-06-24T10:53:40;26.50;82.50
17236;DHT22;8734;59.272;17.780;2023-06-24T10:56:09;26.30;83.50
17236;DHT22;8734;59.272;17.780;2023-06-24T10:58:38;25.90;84.40
17236;DHT22;8734;59.272;17.780;2023-06-24T11:01:08;26.00;85.30
17236;DHT22;8734;59.272;17.780;2023-06-24T11:03:40;26.00;86.20
17236;DHT22;8734;59.272;17.780;2023-06-24T11:06:10;26.30;86.00
17236;DHT22;8734;59.272;17.780;2023-06-24T11:08:44;26.00;86.60
17236;DHT22;8734;59.272;17.780;2023-06-24T11:11:19;25.60;88.70
17236;DHT22;8734;59.272;17.780;2023-06-24T11:13:49;26.00;89.20
17236;DHT22;8734;59.272;17.780;2023-06-24T11:16:21;26.50;88.10
17236;DHT22;8734;59.272;17.780;2023-06-24T11:18:49;26.40;88.00
17236;DHT22;8734;59.272;17.780;2023-06-24T11:21:18;26.60;88.40
17236;DHT22;8734;59.272;17.780;2023-06-24T11:23:46;26.80;87.70
17236;DHT22;8734;59.272;17.780;2023-06-24T11:26:15;27.20;88.90
17236;DHT22;8734;59.272;17.780;2023-06-24T11:28:43;27.50;90.00
17236;DHT22;8734;59.272;17.780;2023-06-24T11:31:13;27.50;85.70
17236;DHT22;8734;59.272;17.780;2023-06-24T11:33:42;27.30;86.20
17236;DHT22;8734;59.272;17.780;2023-06-24T11:36:10;27.00;89.00
17236;DHT22;8734;59.272;17.780;2023-06-24T11:38:38;27.00;88.40
17236;DHT22;8734;59.272;17.780;2023-06-24T11:41:07;27.10;87.50
17236;DHT22;8734;59.272;17.780;2023-06-24T11:43:35;26.90;88.60
17236;DHT22;8734;59.272;17.780;2023-06-24T11:46:03;27.20;87.50
17236;DHT22;8734;59.272;17.780;2023-06-24T11:48:39;27.20;87.30
17236;DHT22;8734;59.272;17.780;2023-06-24T11:51:12;27.20;86.50
17236;DHT22;8734;59.272;17.780;2023-06-24T11:53:41;27.20;88.10
17236;DHT22;8734;59.272;17.780;2023-06-24T11:56:10;27.40;87.60
17236;DHT22;8734;59.272;17.780;2023-06-24T11:58:39;27.30;87.00
17236;DHT22;8734;59.272;17.780;2023-06-24T12:01:07;26.70;89.10
17236;DHT22;8734;59.272;17.780;2023-06-24T12:03:37;26.90;89.50
17236;DHT22;8734;59.272;17.780;2023-06-24T12:06:06;26.90;88.90
17236;DHT22;8734;59.272;17.780;2023-06-24T12:08:39;27.00;88.90
17236;DHT22;8734;59.272;17.780;2023-06-24T12:11:18;26.50;89.50
17236;DHT22;8734;59.272;17.780;2023-06-24T12:13:46;26.60;90.10
17236;DHT22;8734;59.272;17.780;2023-06-24T12:16:15;26.60;90.00
17236;DHT22;8734;59.272;17.780;2023-06-24T12:18:44;26.40;90.30
17236;DHT22;8734;59.272;17.780;2023-06-24T12:21:13;26.70;90.20
17236;DHT22;8734;59.272;17.780;2023-06-24T12:23:41;26.40;90.40
17236;DHT22;8734;59.272;17.780;2023-06-24T12:26:09;26.50;90.30
17236;DHT22;8734;59.272;17.780;2023-06-24T12:28:38;26.70;90.00
17236;DHT22;8734;59.272;17.780;2023-06-24T12:31:06;27.00;90.70
17236;DHT22;8734;59.272;17.780;2023-06-24T12:33:34;27.20;89.90
17236;DHT22;8734;59.272;17.780;2023-06-24T12:36:05;27.50;89.30
17236;DHT22;8734;59.272;17.780;2023-06-24T12:38:33;27.40;88.50
17236;DHT22;8734;59.272;17.780;2023-06-24T12:41:03;27.40;89.80
17236;DHT22;8734;59.272;17.780;2023-06-24T12:43:32;27.10;89.20
17236;DHT22;8734;59.272;17.780;2023-06-24T12:46:00;26.80;90.20
17236;DHT22;8734;59.272;17.780;2023-06-24T12:48:28;26.90;90.60
17236;DHT22;8734;59.272;17.780;2023-06-24T12:50:57;27.10;89.90
17236;DHT22;8734;59.272;17.780;2023-06-24T12:53:26;27.00;89.50
17236;DHT22;8734;59.272;17.780;2023-06-24T12:55:55;26.60;90.70
17236;DHT22;8734;59.272;17.780;2023-06-24T12:58:24;26.60;90.80
17236;DHT22;8734;59.272;17.780;2023-06-24T13:00:53;27.10;90.50
17236;DHT22;8734;59.272;17.780;2023-06-24T13:03:21;27.10;90.10
17236;DHT22;8734;59.272;17.780;2023-06-24T13:05:49;26.80;90.50
17236;DHT22;8734;59.272;17.780;2023-06-24T13:08:18;27.00;90.60
17236;DHT22;8734;59.272;17.780;2023-06-24T13:10:47;26.80;90.10
17236;DHT22;8734;59.272;17.780;2023-06-24T13:13:16;26.70;90.80
17236;DHT22;8734;59.272;17.780;2023-06-24T13:15:44;26.80;90.10
17236;DHT22;8734;59.272;17.780;2023-06-24T13:18:13;26.50;90.60
17236;DHT22;8734;59.272;17.780;2023-06-24T13:20:41;26.60;90.80
17236;DHT22;8734;59.272;17.780;2023-06-24T13:23:10;26.70;91.70
17236;DHT22;8734;59.272;17.780;2023-06-24T13:25:38;26.70;90.90
17236;DHT22;8734;59.272;17.780;2023-06-24T13:28:08;26.80;90.60
17236;DHT22;8734;59.272;17.780;2023-06-24T13:30:36;26.50;91.30
17236;DHT22;8734;59.272;17.780;2023-06-24T13:33:04;26.70;91.00
17236;DHT22;8734;59.272;17.780;2023-06-24T13:35:33;26.70;91.10
17236;DHT22;8734;59.272;17.780;2023-06-24T13:38:02;26.80;91.10
17236;DHT22;8734;59.272;17.780;2023-06-24T13:40:30;27.00;90.80
17236;DHT22;8734;59.272;17.780;2023-06-24T13:42:59;26.80;90.50
17236;DHT22;8734;59.272;17.780;2023-06-24T13:45:29;26.40;91.40
17236;DHT22;8734;59.272;17.780;2023-06-24T13:47:57;26.60;91.40
17236;DHT22;8734;59.272;17.780;2023-06-24T13:50:26;26.60;90.90
17236;DHT22;8734;59.272;17.780;2023-06-24T13:52:56;26.90;91.10
17236;DHT22;8734;59.272;17.780;2023-06-24T13:55:24;26.90;90.40
17236;DHT22;8734;59.272;17.780;2023-06-24T13:57:52;26.70;90.50
17236;DHT22;8734;59.272;17.780;2023-06-24T14:00:21;26.50;90.90
17236;DHT22;8734;59.272;17.780;2023-06-24T14:02:51;26.50;90.40
17236;DHT22;8734;59.272;17.780;2023-06-24T14:05:19;26.40;90.90
17236;DHT22;8734;59.272;17.780;2023-06-24T14:07:48;26.40;90.90
17236;DHT22;8734;59.272;17.780;2023-06-24T14:10:16;26.50;91.10
17236;DHT22;8734;59.272;17.780;2023-06-24T14:12:45;26.50;91.00
17236;DHT22;8734;59.272;17.780;2023-06-24T14:15:13;26.50;91.80
17236;DHT22;8734;59.272;17.780;2023-06-24T14:17:41;26.50;91.60
17236;DHT22;8734;59.272;17.780;2023-06-24T14:20:12;26.50;91.70
17236;DHT22;8734;59.272;17.780;2023-06-24T14:22:40;26.50;90.90
17236;DHT22;8734;59.272;17.780;2023-06-24T14:25:08;26.60;91.10
17236;DHT22;8734;59.272;17.780;2023-06-24T14:27:38;26.70;90.40
17236;DHT22;8734;59.272;17.780;2023-06-24T14:30:07;26.70;90.40
17236;DHT22;8734;59.272;17.780;2023-06-24T14:32:35;26.70;90.40
17236;DHT22;8734;59.272;17.780;2023-06-24T14:35:05;26.80;89.70
17236;DHT22;8734;59.272;17.780;2023-06-24T14:37:34;26.90;90.50
17236;DHT22;8734;59.272;17.780;2023-06-24T14:40:03;27.00;89.70
17236;DHT22;8734;59.272;17.780;2023-06-24T14:42:32;26.80;88.30
17236;DHT22;8734;59.272;17.780;2023-06-24T14:45:00;26.50;88.40
17236;DHT22;8734;59.272;17.780;2023-06-24T14:47:28;26.80;89.10
17236;DHT22;8734;59.272;17.780;2023-06-24T14:49:57;27.10;86.90
17236;DHT22;8734;59.272;17.780;2023-06-24T14:52:26;26.90;88.50
17236;DHT22;8734;59.272;17.780;2023-06-24T14:54:56;27.00;86.10
17236;DHT22;8734;59.272;17.780;2023-06-24T14:57:24;26.90;86.90
17236;DHT22;8734;59.272;17.780;2023-06-24T14:59:52;26.80;85.50
17236;DHT22;8734;59.272;17.780;2023-06-24T15:02:20;26.70;86.60
17236;DHT22;8734;59.272;17.780;2023-06-24T15:04:49;26.40;87.20
17236;DHT22;8734;59.272;17.780;2023-06-24T15:07:18;26.30;87.60
17236;DHT22;8734;59.272;17.780;2023-06-24T15:09:46;26.10;87.30
17236;DHT22;8734;59.272;17.780;2023-06-24T15:12:16;26.00;88.00
17236;DHT22;8734;59.272;17.780;2023-06-24T15:14:44;25.90;88.30
17236;DHT22;8734;59.272;17.780;2023-06-24T15:17:15;26.10;88.20
17236;DHT22;8734;59.272;17.780;2023-06-24T15:19:43;26.30;88.10
17236;DHT22;8734;59.272;17.780;2023-06-24T15:22:11;26.60;87.60
17236;DHT22;8734;59.272;17.780;2023-06-24T15:24:40;27.00;86.40
17236;DHT22;8734;59.272;17.780;2023-06-24T15:27:08;26.90;83.80
17236;DHT22;8734;59.272;17.780;2023-06-24T15:29:38;27.00;84.80
17236;DHT22;8734;59.272;17.780;2023-06-24T15:32:06;27.00;84.30
17236;DHT22;8734;59.272;17.780;2023-06-24T15:34:35;26.70;83.80
17236;DHT22;8734;59.272;17.780;2023-06-24T15:37:03;26.90;84.00
17236;DHT22;8734;59.272;17.780;2023-06-24T15:39:32;27.10;83.60
17236;DHT22;8734;59.272;17.780;2023-06-24T15:42:00;27.20;84.00
17236;DHT22;8734;59.272;17.780;2023-06-24T15:44:28;27.20;83.30